Aviation Digital Data Service (ADDS)

Output produced by METARs form (0110 UTC 05 September 2015)
found at http://aviationweather.gov/adds/metars/
 
KYNG 042334Z 0500/0524 VRB03KT P6SM BKN120 
     FM050500 14003KT 6SM BR SCT120 BKN250 
     TEMPO 0505/0509 4SM BR 
     FM050900 14003KT 4SM BR SCT250 
     TEMPO 0509/0513 1SM BR 
     FM051400 18005KT P6SM SCT120 BKN250